Weather reports worldwide

Advertisment
Grottaglie, Italy (16324): temperature & dewpoint: 20.03.2019 08:00:00 - 26.03.2019 08:00:00 (CET)Grottaglie, Italy (16324): wind speed: 20.03.2019 08:00:00 - 26.03.2019 08:00:00 (CET)Grottaglie, Italy (16324): wind direction: 20.03.2019 08:00:00 - 26.03.2019 08:00:00 (CET)Grottaglie, Italy (16324): visibility: 20.03.2019 08:00:00 - 26.03.2019 08:00:00 (CET)
Date & Time tt [°C] td [°C] ff [km/h] ff [kn] dd vv [km]
26.03.2019 08:00:00 - - - - - -
26.03.2019 07:00:00 - - - - - -
26.03.2019 06:00:00 - - - - - -
26.03.2019 05:00:00 - - - - - -
26.03.2019 04:00:00 - - - - - -
26.03.2019 03:00:00 - - - - - -
26.03.2019 02:00:00 - - - - - -
26.03.2019 01:00:00 - - - - - -
26.03.2019 00:00:00 - - - - - -
25.03.2019 23:00:00 - - - - - -
25.03.2019 22:00:00 - - - - - -
25.03.2019 21:00:00 - - - - - -
25.03.2019 20:00:00 13,0 7,0 0 0 N 10
25.03.2019 19:00:00 15,0 7,0 5 3 SE 10
25.03.2019 18:00:00 17,0 8,0 8 4 SSE 10
25.03.2019 17:00:00 19,0 6,0 11 6 SSW 10
25.03.2019 16:00:00 20,0 4,0 13 7 SW 10
25.03.2019 15:00:00 21,0 6,0 13 7 SSW 10
25.03.2019 14:00:00 21,0 5,0 11 6 SSW 10
25.03.2019 13:00:00 21,0 5,0 13 7 WSW 10
25.03.2019 12:00:00 20,0 4,0 9 5 WSW 10
25.03.2019 11:00:00 19,0 4,0 13 7 SW 10
25.03.2019 10:00:00 18,0 5,0 11 6 SW 10
25.03.2019 09:00:00 16,0 9,0 0 0 N 10
25.03.2019 08:00:00 14,0 8,0 0 0 N 10
25.03.2019 07:00:00 - - - - - -
25.03.2019 06:00:00 - - - - - -
25.03.2019 05:00:00 - - - - - -
25.03.2019 04:00:00 - - - - - -
25.03.2019 03:00:00 - - - - - -
25.03.2019 02:00:00 - - - - - -
25.03.2019 01:00:00 - - - - - -
25.03.2019 00:00:00 - - - - - -
24.03.2019 23:00:00 - - - - - -
24.03.2019 22:00:00 - - - - - -
24.03.2019 21:00:00 - - - - - -
24.03.2019 20:00:00 13,0 3,0 5 3 N 10
24.03.2019 19:00:00 17,0 1,0 0 0 N 10
24.03.2019 18:00:00 19,0 2,0 11 6 NE 10
24.03.2019 17:00:00 21,0 1,0 13 7 NE 10
24.03.2019 16:00:00 22,0 1,0 13 7 NE 10
24.03.2019 15:00:00 22,0 2,0 15 8 NNE 10
24.03.2019 14:00:00 22,0 1,0 13 7 NE 10
24.03.2019 13:00:00 21,0 3,0 13 7 NNE 10
24.03.2019 12:00:00 21,0 4,0 11 6 ENE 10
24.03.2019 11:00:00 20,0 4,0 16 9 NNE 10
24.03.2019 10:00:00 19,0 4,0 18 10 NNE 10
24.03.2019 09:00:00 18,0 7,0 16 9 N 10
24.03.2019 08:00:00 16,0 6,0 16 9 N 10
24.03.2019 07:00:00 - - - - - -
24.03.2019 06:00:00 - - - - - -
24.03.2019 05:00:00 - - - - - -
24.03.2019 04:00:00 - - - - - -
24.03.2019 03:00:00 - - - - - -
24.03.2019 02:00:00 - - - - - -
24.03.2019 01:00:00 - - - - - -
24.03.2019 00:00:00 - - - - - -
23.03.2019 23:00:00 - - - - - -
23.03.2019 22:00:00 - - - - - -
23.03.2019 21:00:00 - - - - - -
23.03.2019 20:00:00 13,0 4,0 0 0 N 10
23.03.2019 19:00:00 15,0 5,0 0 0 N 10
23.03.2019 18:00:00 17,0 5,0 11 6 NNW 10
23.03.2019 17:00:00 18,0 4,0 15 8 N 10
23.03.2019 16:00:00 19,0 5,0 16 9 NNE 10
23.03.2019 15:00:00 18,0 6,0 21 11 NNE 10
23.03.2019 14:00:00 18,0 6,0 28 15 NNE 10
23.03.2019 13:00:00 19,0 8,0 28 15 NE 10
23.03.2019 12:00:00 18,0 7,0 24 13 NNE 10
23.03.2019 11:00:00 18,0 7,0 28 15 NNE 10
23.03.2019 10:00:00 17,0 8,0 29 16 NNE 10
23.03.2019 09:00:00 16,0 8,0 34 18 NNE 10
23.03.2019 08:00:00 15,0 8,0 24 13 NNE 10
23.03.2019 07:00:00 - - - - - -
23.03.2019 06:00:00 - - - - - -
23.03.2019 05:00:00 - - - - - -
23.03.2019 04:00:00 - - - - - -
23.03.2019 03:00:00 - - - - - -
23.03.2019 02:00:00 - - - - - -
23.03.2019 01:00:00 - - - - - -
23.03.2019 00:00:00 - - - - - -
22.03.2019 23:00:00 - - - - - -
22.03.2019 22:00:00 - - - - - -
22.03.2019 21:00:00 - - - - - -
22.03.2019 20:00:00 13,0 7,0 18 10 N 10
22.03.2019 19:00:00 13,0 7,0 9 5 N 10
22.03.2019 18:00:00 14,0 8,0 22 12 N 10
22.03.2019 17:00:00 16,0 8,0 28 15 N 10
22.03.2019 16:00:00 17,0 8,0 24 13 NNE 10
22.03.2019 15:00:00 17,0 9,0 29 16 NNE 10
22.03.2019 14:00:00 17,0 10,0 31 17 NNE 10
22.03.2019 13:00:00 17,0 9,0 26 14 NNE 10
22.03.2019 12:00:00 17,0 10,0 29 16 NNE 10
22.03.2019 11:00:00 17,0 10,0 31 17 NNE 10
22.03.2019 10:00:00 16,0 10,0 28 15 NNE 10
22.03.2019 09:00:00 15,0 10,0 37 20 NNE 10
22.03.2019 08:00:00 14,0 10,0 21 11 NNE 10
22.03.2019 07:00:00 - - - - - -
22.03.2019 06:00:00 - - - - - -
22.03.2019 05:00:00 - - - - - -
22.03.2019 04:00:00 - - - - - -
22.03.2019 03:00:00 - - - - - -
22.03.2019 02:00:00 - - - - - -
22.03.2019 01:00:00 - - - - - -
22.03.2019 00:00:00 - - - - - -
21.03.2019 23:00:00 - - - - - -
21.03.2019 22:00:00 - - - - - -
21.03.2019 21:00:00 - - - - - -
21.03.2019 20:00:00 13,0 8,0 34 18 N 10
21.03.2019 19:00:00 13,0 8,0 31 17 N 10
21.03.2019 18:00:00 14,0 8,0 29 16 N 10
21.03.2019 17:00:00 16,0 7,0 29 16 NNE 10
21.03.2019 16:00:00 17,0 8,0 31 17 NNE 10
21.03.2019 15:00:00 17,0 8,0 44 24 NNE 10
21.03.2019 14:00:00 17,0 9,0 37 20 NNE 10
21.03.2019 13:00:00 17,0 9,0 39 21 NNE 10
21.03.2019 12:00:00 17,0 10,0 39 21 NNE 10
21.03.2019 11:00:00 17,0 10,0 39 21 NNE 10
21.03.2019 10:00:00 16,0 10,0 37 20 N 10
21.03.2019 09:00:00 15,0 9,0 39 21 NNE 10
21.03.2019 08:00:00 13,0 9,0 37 20 N 10
21.03.2019 07:00:00 - - - - - -
21.03.2019 06:00:00 - - - - - -
21.03.2019 05:00:00 - - - - - -
21.03.2019 04:00:00 - - - - - -
21.03.2019 03:00:00 - - - - - -
21.03.2019 02:00:00 - - - - - -
21.03.2019 01:00:00 - - - - - -
21.03.2019 00:00:00 - - - - - -
20.03.2019 23:00:00 - - - - - -
20.03.2019 22:00:00 - - - - - -
20.03.2019 21:00:00 11,0 7,0 26 14 N 10
20.03.2019 20:00:00 12,0 7,0 9 5 NW 10
20.03.2019 19:00:00 12,0 7,0 9 5 NNW 10
20.03.2019 18:00:00 13,0 8,0 9 5 WNW 10
20.03.2019 17:00:00 14,0 8,0 0 0 N 10
20.03.2019 16:00:00 14,0 9,0 13 7 NW 10
20.03.2019 15:00:00 15,0 9,0 21 11 N 10
20.03.2019 14:00:00 15,0 10,0 21 11 N 10
20.03.2019 13:00:00 15,0 10,0 24 13 NNE 10
20.03.2019 12:00:00 14,0 10,0 28 15 NNE 10
20.03.2019 11:00:00 14,0 10,0 26 14 NNE 10
20.03.2019 10:00:00 14,0 10,0 18 10 N 10
20.03.2019 09:00:00 13,0 10,0 24 13 N 10
20.03.2019 08:00:00 13,0 10,0 26 14 N 10

tt = temperature
td = dewpoint
ff = wind speed
dd = wind direction
vv = visibility

Next stations